sensor_id;sensor_type;location;lat;lon;timestamp;P1;durP1;ratioP1;P2;durP2;ratioP2
62435;SDS011;48480;50.252;18.848;2023-01-30T00:01:20;20.10;;;11.60;;
62435;SDS011;48480;50.252;18.848;2023-01-30T00:03:48;16.10;;;9.80;;
62435;SDS011;48480;50.252;18.848;2023-01-30T00:06:14;20.40;;;10.70;;
62435;SDS011;48480;50.252;18.848;2023-01-30T00:08:40;19.70;;;11.90;;
62435;SDS011;48480;50.252;18.848;2023-01-30T00:11:06;19.60;;;10.60;;
62435;SDS011;48480;50.252;18.848;2023-01-30T00:13:34;14.00;;;8.50;;
62435;SDS011;48480;50.252;18.848;2023-01-30T00:16:00;17.80;;;9.30;;
62435;SDS011;48480;50.252;18.848;2023-01-30T00:18:25;21.30;;;9.50;;
62435;SDS011;48480;50.252;18.848;2023-01-30T00:20:57;22.80;;;10.10;;
62435;SDS011;48480;50.252;18.848;2023-01-30T00:23:25;18.00;;;9.50;;
62435;SDS011;48480;50.252;18.848;2023-01-30T00:25:51;16.50;;;9.20;;
62435;SDS011;48480;50.252;18.848;2023-01-30T00:28:17;14.00;;;7.70;;
62435;SDS011;48480;50.252;18.848;2023-01-30T00:30:43;20.50;;;11.70;;
62435;SDS011;48480;50.252;18.848;2023-01-30T00:33:09;16.80;;;9.80;;
62435;SDS011;48480;50.252;18.848;2023-01-30T00:35:36;12.20;;;7.60;;
62435;SDS011;48480;50.252;18.848;2023-01-30T00:38:02;11.60;;;7.70;;
62435;SDS011;48480;50.252;18.848;2023-01-30T00:40:28;16.70;;;9.50;;
62435;SDS011;48480;50.252;18.848;2023-01-30T00:42:54;15.90;;;9.40;;
62435;SDS011;48480;50.252;18.848;2023-01-30T00:45:39;15.70;;;8.80;;
62435;SDS011;48480;50.252;18.848;2023-01-30T00:48:26;16.40;;;8.30;;
62435;SDS011;48480;50.252;18.848;2023-01-30T00:50:52;17.10;;;9.30;;
62435;SDS011;48480;50.252;18.848;2023-01-30T00:53:18;17.80;;;9.80;;
62435;SDS011;48480;50.252;18.848;2023-01-30T00:55:43;18.80;;;9.90;;
62435;SDS011;48480;50.252;18.848;2023-01-30T00:58:10;13.10;;;7.30;;
62435;SDS011;48480;50.252;18.848;2023-01-30T01:00:36;17.00;;;8.80;;
62435;SDS011;48480;50.252;18.848;2023-01-30T01:03:02;14.10;;;8.00;;
62435;SDS011;48480;50.252;18.848;2023-01-30T01:05:28;16.30;;;9.30;;
62435;SDS011;48480;50.252;18.848;2023-01-30T01:07:54;17.90;;;10.60;;
62435;SDS011;48480;50.252;18.848;2023-01-30T01:10:23;13.50;;;6.90;;
62435;SDS011;48480;50.252;18.848;2023-01-30T01:12:49;13.80;;;8.60;;
62435;SDS011;48480;50.252;18.848;2023-01-30T01:15:16;15.80;;;8.30;;
62435;SDS011;48480;50.252;18.848;2023-01-30T01:17:42;13.20;;;7.50;;
62435;SDS011;48480;50.252;18.848;2023-01-30T01:20:08;19.50;;;10.10;;
62435;SDS011;48480;50.252;18.848;2023-01-30T01:22:34;15.90;;;9.50;;
62435;SDS011;48480;50.252;18.848;2023-01-30T01:25:00;12.90;;;7.30;;
62435;SDS011;48480;50.252;18.848;2023-01-30T01:27:26;16.90;;;9.00;;
62435;SDS011;48480;50.252;18.848;2023-01-30T01:29:53;15.20;;;8.50;;
62435;SDS011;48480;50.252;18.848;2023-01-30T01:32:19;16.60;;;8.70;;
62435;SDS011;48480;50.252;18.848;2023-01-30T01:34:45;13.20;;;8.00;;
62435;SDS011;48480;50.252;18.848;2023-01-30T01:37:10;14.70;;;8.20;;
62435;SDS011;48480;50.252;18.848;2023-01-30T01:39:36;12.70;;;7.00;;
62435;SDS011;48480;50.252;18.848;2023-01-30T01:42:20;13.00;;;7.50;;
62435;SDS011;48480;50.252;18.848;2023-01-30T01:47:47;15.70;;;9.50;;
62435;SDS011;48480;50.252;18.848;2023-01-30T01:50:24;18.00;;;8.50;;
62435;SDS011;48480;50.252;18.848;2023-01-30T01:53:07;14.50;;;8.80;;
62435;SDS011;48480;50.252;18.848;2023-01-30T01:55:35;13.70;;;8.40;;
62435;SDS011;48480;50.252;18.848;2023-01-30T01:58:05;10.30;;;6.20;;
62435;SDS011;48480;50.252;18.848;2023-01-30T02:00:36;13.90;;;7.60;;
62435;SDS011;48480;50.252;18.848;2023-01-30T02:03:03;17.20;;;9.20;;
62435;SDS011;48480;50.252;18.848;2023-01-30T02:05:35;15.30;;;8.30;;
62435;SDS011;48480;50.252;18.848;2023-01-30T02:10:44;14.40;;;8.50;;
62435;SDS011;48480;50.252;18.848;2023-01-30T02:13:33;9.80;;;5.90;;
62435;SDS011;48480;50.252;18.848;2023-01-30T02:15:59;19.50;;;10.20;;
62435;SDS011;48480;50.252;18.848;2023-01-30T02:18:26;11.60;;;6.50;;
62435;SDS011;48480;50.252;18.848;2023-01-30T02:21:02;12.70;;;7.40;;
62435;SDS011;48480;50.252;18.848;2023-01-30T02:40:03;11.20;;;6.50;;
62435;SDS011;48480;50.252;18.848;2023-01-30T02:43:03;13.70;;;6.60;;
62435;SDS011;48480;50.252;18.848;2023-01-30T02:48:28;10.30;;;5.70;;
62435;SDS011;48480;50.252;18.848;2023-01-30T02:51:26;10.30;;;6.60;;
62435;SDS011;48480;50.252;18.848;2023-01-30T02:54:11;13.00;;;8.00;;
62435;SDS011;48480;50.252;18.848;2023-01-30T02:59:10;14.60;;;8.10;;
62435;SDS011;48480;50.252;18.848;2023-01-30T03:01:56;12.70;;;7.40;;
62435;SDS011;48480;50.252;18.848;2023-01-30T03:10:01;10.20;;;6.20;;
62435;SDS011;48480;50.252;18.848;2023-01-30T03:17:53;16.00;;;8.80;;
62435;SDS011;48480;50.252;18.848;2023-01-30T03:20:20;13.30;;;7.30;;
62435;SDS011;48480;50.252;18.848;2023-01-30T03:22:45;10.80;;;6.20;;
62435;SDS011;48480;50.252;18.848;2023-01-30T03:25:16;13.60;;;8.30;;
62435;SDS011;48480;50.252;18.848;2023-01-30T03:27:53;12.60;;;6.90;;
62435;SDS011;48480;50.252;18.848;2023-01-30T03:30:20;10.50;;;6.30;;
62435;SDS011;48480;50.252;18.848;2023-01-30T03:32:47;12.20;;;6.90;;
62435;SDS011;48480;50.252;18.848;2023-01-30T03:35:13;15.50;;;8.40;;
62435;SDS011;48480;50.252;18.848;2023-01-30T03:37:42;14.30;;;6.30;;
62435;SDS011;48480;50.252;18.848;2023-01-30T03:40:10;11.30;;;8.00;;
62435;SDS011;48480;50.252;18.848;2023-01-30T03:42:36;12.40;;;7.30;;
62435;SDS011;48480;50.252;18.848;2023-01-30T03:45:01;10.20;;;6.30;;
62435;SDS011;48480;50.252;18.848;2023-01-30T03:47:27;12.70;;;6.70;;
62435;SDS011;48480;50.252;18.848;2023-01-30T03:49:52;8.70;;;5.50;;
62435;SDS011;48480;50.252;18.848;2023-01-30T03:52:18;11.90;;;7.10;;
62435;SDS011;48480;50.252;18.848;2023-01-30T03:54:44;9.00;;;6.40;;
62435;SDS011;48480;50.252;18.848;2023-01-30T03:57:09;13.80;;;7.60;;
62435;SDS011;48480;50.252;18.848;2023-01-30T03:59:35;13.90;;;7.10;;
62435;SDS011;48480;50.252;18.848;2023-01-30T04:02:00;10.60;;;6.80;;
62435;SDS011;48480;50.252;18.848;2023-01-30T04:04:26;10.60;;;6.30;;
62435;SDS011;48480;50.252;18.848;2023-01-30T04:06:51;7.30;;;4.90;;
62435;SDS011;48480;50.252;18.848;2023-01-30T04:09:16;11.20;;;7.40;;
62435;SDS011;48480;50.252;18.848;2023-01-30T04:11:42;10.80;;;6.40;;
62435;SDS011;48480;50.252;18.848;2023-01-30T04:14:07;12.90;;;7.50;;
62435;SDS011;48480;50.252;18.848;2023-01-30T04:16:33;11.80;;;7.00;;
62435;SDS011;48480;50.252;18.848;2023-01-30T04:18:58;7.80;;;4.90;;
62435;SDS011;48480;50.252;18.848;2023-01-30T04:21:23;13.40;;;7.90;;
62435;SDS011;48480;50.252;18.848;2023-01-30T04:23:49;10.80;;;6.80;;
62435;SDS011;48480;50.252;18.848;2023-01-30T04:26:14;10.40;;;6.90;;
62435;SDS011;48480;50.252;18.848;2023-01-30T04:28:40;7.50;;;4.70;;
62435;SDS011;48480;50.252;18.848;2023-01-30T04:31:07;9.90;;;5.90;;
62435;SDS011;48480;50.252;18.848;2023-01-30T04:33:32;13.80;;;7.50;;
62435;SDS011;48480;50.252;18.848;2023-01-30T04:36:01;11.80;;;6.60;;
62435;SDS011;48480;50.252;18.848;2023-01-30T04:38:29;11.00;;;6.70;;
62435;SDS011;48480;50.252;18.848;2023-01-30T04:40:56;9.50;;;5.70;;
62435;SDS011;48480;50.252;18.848;2023-01-30T04:43:23;13.10;;;7.70;;
62435;SDS011;48480;50.252;18.848;2023-01-30T04:45:51;13.60;;;7.60;;
62435;SDS011;48480;50.252;18.848;2023-01-30T04:48:16;9.10;;;6.30;;
62435;SDS011;48480;50.252;18.848;2023-01-30T04:50:43;9.80;;;6.90;;
62435;SDS011;48480;50.252;18.848;2023-01-30T04:53:11;14.00;;;8.50;;
62435;SDS011;48480;50.252;18.848;2023-01-30T04:55:37;11.90;;;7.20;;
62435;SDS011;48480;50.252;18.848;2023-01-30T04:58:03;13.80;;;7.70;;
62435;SDS011;48480;50.252;18.848;2023-01-30T05:00:29;13.20;;;7.60;;
62435;SDS011;48480;50.252;18.848;2023-01-30T05:02:55;13.60;;;8.00;;
62435;SDS011;48480;50.252;18.848;2023-01-30T05:05:21;11.60;;;7.60;;
62435;SDS011;48480;50.252;18.848;2023-01-30T05:07:48;13.70;;;7.50;;
62435;SDS011;48480;50.252;18.848;2023-01-30T05:10:13;14.40;;;7.60;;
62435;SDS011;48480;50.252;18.848;2023-01-30T05:12:40;12.40;;;7.90;;
62435;SDS011;48480;50.252;18.848;2023-01-30T05:15:05;11.20;;;7.40;;
62435;SDS011;48480;50.252;18.848;2023-01-30T05:17:32;10.70;;;6.00;;
62435;SDS011;48480;50.252;18.848;2023-01-30T05:19:58;11.70;;;7.30;;
62435;SDS011;48480;50.252;18.848;2023-01-30T05:22:23;12.30;;;6.90;;
62435;SDS011;48480;50.252;18.848;2023-01-30T05:24:49;14.00;;;8.60;;
62435;SDS011;48480;50.252;18.848;2023-01-30T05:27:14;14.00;;;9.30;;
62435;SDS011;48480;50.252;18.848;2023-01-30T05:29:40;12.20;;;7.30;;
62435;SDS011;48480;50.252;18.848;2023-01-30T05:32:05;10.90;;;6.70;;
62435;SDS011;48480;50.252;18.848;2023-01-30T05:34:31;14.20;;;7.50;;
62435;SDS011;48480;50.252;18.848;2023-01-30T05:36:56;12.60;;;8.40;;
62435;SDS011;48480;50.252;18.848;2023-01-30T05:39:22;15.00;;;8.50;;
62435;SDS011;48480;50.252;18.848;2023-01-30T05:41:47;14.00;;;8.40;;
62435;SDS011;48480;50.252;18.848;2023-01-30T05:44:13;13.90;;;7.90;;
62435;SDS011;48480;50.252;18.848;2023-01-30T05:46:38;14.40;;;8.20;;
62435;SDS011;48480;50.252;18.848;2023-01-30T05:49:04;14.60;;;8.30;;
62435;SDS011;48480;50.252;18.848;2023-01-30T05:51:29;13.70;;;7.50;;
62435;SDS011;48480;50.252;18.848;2023-01-30T05:53:55;14.20;;;8.70;;
62435;SDS011;48480;50.252;18.848;2023-01-30T05:56:21;14.00;;;7.40;;
62435;SDS011;48480;50.252;18.848;2023-01-30T05:58:51;17.20;;;8.70;;
62435;SDS011;48480;50.252;18.848;2023-01-30T06:01:18;17.40;;;9.50;;
62435;SDS011;48480;50.252;18.848;2023-01-30T06:03:44;18.10;;;10.00;;
62435;SDS011;48480;50.252;18.848;2023-01-30T06:06:09;16.20;;;9.30;;
62435;SDS011;48480;50.252;18.848;2023-01-30T06:08:36;14.40;;;8.10;;
62435;SDS011;48480;50.252;18.848;2023-01-30T06:11:02;16.70;;;8.80;;
62435;SDS011;48480;50.252;18.848;2023-01-30T06:13:29;16.40;;;9.20;;
62435;SDS011;48480;50.252;18.848;2023-01-30T06:15:55;13.80;;;8.20;;
62435;SDS011;48480;50.252;18.848;2023-01-30T06:18:21;8.80;;;6.20;;
62435;SDS011;48480;50.252;18.848;2023-01-30T06:20:47;20.90;;;10.20;;
62435;SDS011;48480;50.252;18.848;2023-01-30T06:23:14;12.60;;;8.30;;
62435;SDS011;48480;50.252;18.848;2023-01-30T06:25:44;15.70;;;9.20;;
62435;SDS011;48480;50.252;18.848;2023-01-30T06:28:11;15.90;;;9.40;;
62435;SDS011;48480;50.252;18.848;2023-01-30T06:30:37;11.30;;;6.70;;
62435;SDS011;48480;50.252;18.848;2023-01-30T06:33:04;15.30;;;9.10;;
62435;SDS011;48480;50.252;18.848;2023-01-30T06:35:30;14.60;;;9.20;;
62435;SDS011;48480;50.252;18.848;2023-01-30T06:37:55;15.20;;;9.50;;
62435;SDS011;48480;50.252;18.848;2023-01-30T06:40:21;16.60;;;8.70;;
62435;SDS011;48480;50.252;18.848;2023-01-30T06:42:46;16.20;;;9.10;;
62435;SDS011;48480;50.252;18.848;2023-01-30T06:45:15;17.50;;;8.30;;
62435;SDS011;48480;50.252;18.848;2023-01-30T06:47:46;13.20;;;6.90;;
62435;SDS011;48480;50.252;18.848;2023-01-30T06:50:14;15.40;;;7.60;;
62435;SDS011;48480;50.252;18.848;2023-01-30T06:52:44;18.90;;;10.30;;
62435;SDS011;48480;50.252;18.848;2023-01-30T06:55:12;28.10;;;12.70;;
62435;SDS011;48480;50.252;18.848;2023-01-30T06:57:40;26.00;;;13.10;;
62435;SDS011;48480;50.252;18.848;2023-01-30T07:00:07;28.70;;;13.50;;
62435;SDS011;48480;50.252;18.848;2023-01-30T07:02:36;20.30;;;10.60;;
62435;SDS011;48480;50.252;18.848;2023-01-30T07:05:02;23.60;;;13.00;;
62435;SDS011;48480;50.252;18.848;2023-01-30T07:07:29;20.20;;;10.40;;
62435;SDS011;48480;50.252;18.848;2023-01-30T07:09:56;19.10;;;11.20;;
62435;SDS011;48480;50.252;18.848;2023-01-30T07:12:24;25.90;;;14.00;;
62435;SDS011;48480;50.252;18.848;2023-01-30T07:14:50;19.70;;;10.90;;
62435;SDS011;48480;50.252;18.848;2023-01-30T07:17:17;15.30;;;8.60;;
62435;SDS011;48480;50.252;18.848;2023-01-30T07:19:43;22.20;;;13.10;;
62435;SDS011;48480;50.252;18.848;2023-01-30T07:22:10;21.60;;;11.70;;
62435;SDS011;48480;50.252;18.848;2023-01-30T07:24:36;15.40;;;8.90;;
62435;SDS011;48480;50.252;18.848;2023-01-30T07:27:08;18.90;;;10.60;;
62435;SDS011;48480;50.252;18.848;2023-01-30T07:29:35;20.00;;;12.70;;
62435;SDS011;48480;50.252;18.848;2023-01-30T07:32:02;19.40;;;9.80;;
62435;SDS011;48480;50.252;18.848;2023-01-30T07:34:29;20.50;;;12.40;;
62435;SDS011;48480;50.252;18.848;2023-01-30T07:36:54;15.70;;;10.00;;
62435;SDS011;48480;50.252;18.848;2023-01-30T07:39:20;22.10;;;12.80;;
62435;SDS011;48480;50.252;18.848;2023-01-30T07:41:45;20.60;;;11.40;;
62435;SDS011;48480;50.252;18.848;2023-01-30T07:44:11;21.80;;;10.90;;
62435;SDS011;48480;50.252;18.848;2023-01-30T07:46:38;16.70;;;10.00;;
62435;SDS011;48480;50.252;18.848;2023-01-30T07:49:04;25.70;;;13.40;;
62435;SDS011;48480;50.252;18.848;2023-01-30T07:51:30;15.00;;;8.80;;
62435;SDS011;48480;50.252;18.848;2023-01-30T07:53:56;12.70;;;7.80;;
62435;SDS011;48480;50.252;18.848;2023-01-30T07:56:21;22.70;;;12.60;;
62435;SDS011;48480;50.252;18.848;2023-01-30T07:58:47;20.60;;;11.30;;
62435;SDS011;48480;50.252;18.848;2023-01-30T08:01:13;17.90;;;9.30;;
62435;SDS011;48480;50.252;18.848;2023-01-30T08:03:39;17.20;;;9.60;;
62435;SDS011;48480;50.252;18.848;2023-01-30T08:06:05;14.30;;;8.30;;
62435;SDS011;48480;50.252;18.848;2023-01-30T08:08:30;16.90;;;9.70;;
62435;SDS011;48480;50.252;18.848;2023-01-30T08:10:56;17.50;;;8.30;;
62435;SDS011;48480;50.252;18.848;2023-01-30T08:13:21;13.20;;;8.00;;
62435;SDS011;48480;50.252;18.848;2023-01-30T08:15:47;16.90;;;10.20;;
62435;SDS011;48480;50.252;18.848;2023-01-30T08:18:12;18.40;;;11.20;;
62435;SDS011;48480;50.252;18.848;2023-01-30T08:20:38;19.10;;;10.50;;
62435;SDS011;48480;50.252;18.848;2023-01-30T08:23:03;16.50;;;9.10;;
62435;SDS011;48480;50.252;18.848;2023-01-30T08:25:29;20.50;;;9.00;;
62435;SDS011;48480;50.252;18.848;2023-01-30T08:27:55;17.70;;;10.80;;
62435;SDS011;48480;50.252;18.848;2023-01-30T08:30:24;22.70;;;11.50;;
62435;SDS011;48480;50.252;18.848;2023-01-30T08:32:49;21.50;;;10.50;;
62435;SDS011;48480;50.252;18.848;2023-01-30T08:35:15;20.30;;;8.60;;
62435;SDS011;48480;50.252;18.848;2023-01-30T08:37:41;24.20;;;13.00;;
62435;SDS011;48480;50.252;18.848;2023-01-30T08:40:08;14.00;;;9.20;;
62435;SDS011;48480;50.252;18.848;2023-01-30T08:42:34;28.90;;;9.10;;
62435;SDS011;48480;50.252;18.848;2023-01-30T08:45:00;17.70;;;9.60;;
62435;SDS011;48480;50.252;18.848;2023-01-30T08:47:26;18.70;;;9.00;;
62435;SDS011;48480;50.252;18.848;2023-01-30T08:49:52;23.10;;;8.60;;
62435;SDS011;48480;50.252;18.848;2023-01-30T08:52:18;20.70;;;12.10;;
62435;SDS011;48480;50.252;18.848;2023-01-30T08:54:44;21.20;;;11.50;;
62435;SDS011;48480;50.252;18.848;2023-01-30T08:57:10;18.80;;;9.50;;
62435;SDS011;48480;50.252;18.848;2023-01-30T08:59:35;16.90;;;8.60;;
62435;SDS011;48480;50.252;18.848;2023-01-30T09:02:01;25.70;;;11.80;;
62435;SDS011;48480;50.252;18.848;2023-01-30T09:04:30;19.70;;;10.10;;
62435;SDS011;48480;50.252;18.848;2023-01-30T09:06:56;17.00;;;10.70;;
62435;SDS011;48480;50.252;18.848;2023-01-30T09:09:22;20.80;;;11.00;;
62435;SDS011;48480;50.252;18.848;2023-01-30T09:11:47;24.00;;;12.10;;
62435;SDS011;48480;50.252;18.848;2023-01-30T09:14:13;15.30;;;8.70;;
62435;SDS011;48480;50.252;18.848;2023-01-30T09:16:44;15.50;;;8.90;;
62435;SDS011;48480;50.252;18.848;2023-01-30T09:19:10;14.60;;;8.20;;
62435;SDS011;48480;50.252;18.848;2023-01-30T09:21:36;15.20;;;8.20;;
62435;SDS011;48480;50.252;18.848;2023-01-30T09:24:04;14.40;;;9.00;;
62435;SDS011;48480;50.252;18.848;2023-01-30T09:26:30;17.40;;;9.60;;
62435;SDS011;48480;50.252;18.848;2023-01-30T09:28:55;14.90;;;9.30;;
62435;SDS011;48480;50.252;18.848;2023-01-30T09:31:21;19.70;;;11.00;;
62435;SDS011;48480;50.252;18.848;2023-01-30T09:33:46;17.60;;;10.20;;
62435;SDS011;48480;50.252;18.848;2023-01-30T09:36:12;16.50;;;10.00;;
62435;SDS011;48480;50.252;18.848;2023-01-30T09:38:37;17.60;;;8.60;;
62435;SDS011;48480;50.252;18.848;2023-01-30T09:54:22;18.50;;;8.70;;
62435;SDS011;48480;50.252;18.848;2023-01-30T09:56:58;23.60;;;13.70;;
62435;SDS011;48480;50.252;18.848;2023-01-30T09:59:38;21.40;;;12.80;;
62435;SDS011;48480;50.252;18.848;2023-01-30T10:05:17;21.10;;;12.10;;
62435;SDS011;48480;50.252;18.848;2023-01-30T10:24:13;15.40;;;9.80;;
62435;SDS011;48480;50.252;18.848;2023-01-30T10:26:43;17.60;;;10.70;;
62435;SDS011;48480;50.252;18.848;2023-01-30T10:29:14;14.30;;;8.90;;
62435;SDS011;48480;50.252;18.848;2023-01-30T10:31:59;19.50;;;10.60;;
62435;SDS011;48480;50.252;18.848;2023-01-30T10:34:39;13.50;;;8.60;;
62435;SDS011;48480;50.252;18.848;2023-01-30T10:43:00;17.40;;;9.90;;
62435;SDS011;48480;50.252;18.848;2023-01-30T10:48:57;20.30;;;9.60;;
62435;SDS011;48480;50.252;18.848;2023-01-30T11:00:41;18.90;;;10.40;;
62435;SDS011;48480;50.252;18.848;2023-01-30T11:06:11;20.60;;;9.60;;
62435;SDS011;48480;50.252;18.848;2023-01-30T11:08:55;20.80;;;10.80;;
62435;SDS011;48480;50.252;18.848;2023-01-30T11:11:37;30.10;;;13.40;;
62435;SDS011;48480;50.252;18.848;2023-01-30T11:14:19;32.30;;;14.50;;
62435;SDS011;48480;50.252;18.848;2023-01-30T11:16:46;21.90;;;11.30;;
62435;SDS011;48480;50.252;18.848;2023-01-30T11:19:18;22.60;;;12.70;;
62435;SDS011;48480;50.252;18.848;2023-01-30T11:21:52;17.90;;;10.50;;
62435;SDS011;48480;50.252;18.848;2023-01-30T11:24:38;21.40;;;12.00;;
62435;SDS011;48480;50.252;18.848;2023-01-30T11:27:18;22.10;;;12.60;;
62435;SDS011;48480;50.252;18.848;2023-01-30T11:29:50;15.80;;;9.90;;
62435;SDS011;48480;50.252;18.848;2023-01-30T11:32:31;13.00;;;8.40;;
62435;SDS011;48480;50.252;18.848;2023-01-30T11:35:29;17.30;;;9.40;;
62435;SDS011;48480;50.252;18.848;2023-01-30T11:37:50;13.80;;;6.90;;
62435;SDS011;48480;50.252;18.848;2023-01-30T11:42:47;21.00;;;11.30;;
62435;SDS011;48480;50.252;18.848;2023-01-30T11:45:18;18.30;;;9.70;;
62435;SDS011;48480;50.252;18.848;2023-01-30T11:47:50;24.80;;;11.10;;
62435;SDS011;48480;50.252;18.848;2023-01-30T11:50:19;17.10;;;9.00;;
62435;SDS011;48480;50.252;18.848;2023-01-30T11:52:50;17.60;;;10.20;;
62435;SDS011;48480;50.252;18.848;2023-01-30T11:55:17;16.80;;;10.10;;
62435;SDS011;48480;50.252;18.848;2023-01-30T12:00:26;18.20;;;9.60;;
62435;SDS011;48480;50.252;18.848;2023-01-30T12:03:04;20.20;;;10.70;;
62435;SDS011;48480;50.252;18.848;2023-01-30T12:05:35;16.40;;;9.90;;
62435;SDS011;48480;50.252;18.848;2023-01-30T12:10:45;27.10;;;12.30;;
62435;SDS011;48480;50.252;18.848;2023-01-30T12:15:44;23.50;;;13.00;;
62435;SDS011;48480;50.252;18.848;2023-01-30T12:18:24;22.30;;;11.50;;
62435;SDS011;48480;50.252;18.848;2023-01-30T12:20:58;16.40;;;9.20;;
62435;SDS011;48480;50.252;18.848;2023-01-30T12:26:31;22.40;;;11.30;;
62435;SDS011;48480;50.252;18.848;2023-01-30T12:31:52;24.50;;;13.00;;
62435;SDS011;48480;50.252;18.848;2023-01-30T12:34:24;23.70;;;12.90;;
62435;SDS011;48480;50.252;18.848;2023-01-30T12:36:56;20.00;;;10.60;;
62435;SDS011;48480;50.252;18.848;2023-01-30T12:45:01;21.60;;;11.50;;
62435;SDS011;48480;50.252;18.848;2023-01-30T13:01:29;23.00;;;13.10;;
62435;SDS011;48480;50.252;18.848;2023-01-30T13:12:55;20.30;;;10.90;;
62435;SDS011;48480;50.252;18.848;2023-01-30T13:18:49;24.00;;;14.00;;
62435;SDS011;48480;50.252;18.848;2023-01-30T13:21:36;24.20;;;13.90;;
62435;SDS011;48480;50.252;18.848;2023-01-30T13:24:20;22.80;;;14.20;;
62435;SDS011;48480;50.252;18.848;2023-01-30T13:26:52;32.30;;;16.90;;
62435;SDS011;48480;50.252;18.848;2023-01-30T13:29:27;31.20;;;17.60;;
62435;SDS011;48480;50.252;18.848;2023-01-30T13:32:03;26.90;;;14.00;;
62435;SDS011;48480;50.252;18.848;2023-01-30T13:34:37;29.40;;;14.50;;
62435;SDS011;48480;50.252;18.848;2023-01-30T13:37:13;22.80;;;12.90;;
62435;SDS011;48480;50.252;18.848;2023-01-30T13:40:01;23.10;;;14.10;;
62435;SDS011;48480;50.252;18.848;2023-01-30T13:42:37;27.50;;;13.60;;
62435;SDS011;48480;50.252;18.848;2023-01-30T13:45:26;27.30;;;14.10;;
62435;SDS011;48480;50.252;18.848;2023-01-30T14:01:21;23.60;;;12.90;;
62435;SDS011;48480;50.252;18.848;2023-01-30T14:03:48;28.10;;;14.10;;
62435;SDS011;48480;50.252;18.848;2023-01-30T14:06:25;26.60;;;11.70;;
62435;SDS011;48480;50.252;18.848;2023-01-30T14:11:45;27.80;;;14.40;;
62435;SDS011;48480;50.252;18.848;2023-01-30T14:16:43;21.80;;;13.80;;
62435;SDS011;48480;50.252;18.848;2023-01-30T14:21:54;26.80;;;14.40;;
62435;SDS011;48480;50.252;18.848;2023-01-30T14:24:22;28.10;;;15.20;;
62435;SDS011;48480;50.252;18.848;2023-01-30T14:26:59;23.50;;;12.70;;
62435;SDS011;48480;50.252;18.848;2023-01-30T14:34:41;25.30;;;12.70;;
62435;SDS011;48480;50.252;18.848;2023-01-30T14:40:09;20.90;;;11.60;;
62435;SDS011;48480;50.252;18.848;2023-01-30T14:45:51;25.10;;;13.10;;
62435;SDS011;48480;50.252;18.848;2023-01-30T14:48:29;26.60;;;15.50;;
62435;SDS011;48480;50.252;18.848;2023-01-30T14:51:16;23.00;;;13.70;;
62435;SDS011;48480;50.252;18.848;2023-01-30T14:59:35;22.10;;;13.50;;
62435;SDS011;48480;50.252;18.848;2023-01-30T15:21:25;32.20;;;17.40;;
62435;SDS011;48480;50.252;18.848;2023-01-30T15:23:59;36.20;;;18.70;;
62435;SDS011;48480;50.252;18.848;2023-01-30T15:26:43;30.30;;;16.10;;
62435;SDS011;48480;50.252;18.848;2023-01-30T15:32:21;37.30;;;17.60;;
62435;SDS011;48480;50.252;18.848;2023-01-30T15:37:48;27.40;;;13.60;;
62435;SDS011;48480;50.252;18.848;2023-01-30T15:42:52;31.40;;;14.30;;
62435;SDS011;48480;50.252;18.848;2023-01-30T15:45:44;28.20;;;14.50;;
62435;SDS011;48480;50.252;18.848;2023-01-30T15:50:54;20.30;;;9.80;;
62435;SDS011;48480;50.252;18.848;2023-01-30T15:53:33;22.20;;;10.80;;
62435;SDS011;48480;50.252;18.848;2023-01-30T15:56:02;26.20;;;12.80;;
62435;SDS011;48480;50.252;18.848;2023-01-30T15:58:41;38.50;;;19.10;;
62435;SDS011;48480;50.252;18.848;2023-01-30T16:01:08;34.80;;;16.70;;
62435;SDS011;48480;50.252;18.848;2023-01-30T16:03:41;36.80;;;17.90;;
62435;SDS011;48480;50.252;18.848;2023-01-30T16:06:28;41.40;;;19.60;;
62435;SDS011;48480;50.252;18.848;2023-01-30T16:09:00;34.70;;;17.60;;
62435;SDS011;48480;50.252;18.848;2023-01-30T16:11:36;45.70;;;21.80;;
62435;SDS011;48480;50.252;18.848;2023-01-30T16:14:12;38.20;;;17.60;;
62435;SDS011;48480;50.252;18.848;2023-01-30T16:17:00;46.80;;;22.00;;
62435;SDS011;48480;50.252;18.848;2023-01-30T16:19:31;51.20;;;22.00;;
62435;SDS011;48480;50.252;18.848;2023-01-30T16:22:00;40.80;;;19.60;;
62435;SDS011;48480;50.252;18.848;2023-01-30T16:24:30;47.40;;;22.10;;
62435;SDS011;48480;50.252;18.848;2023-01-30T16:26:59;51.90;;;23.50;;
62435;SDS011;48480;50.252;18.848;2023-01-30T16:29:27;49.60;;;22.60;;
62435;SDS011;48480;50.252;18.848;2023-01-30T16:31:56;46.50;;;21.20;;
62435;SDS011;48480;50.252;18.848;2023-01-30T16:34:24;63.00;;;26.20;;
62435;SDS011;48480;50.252;18.848;2023-01-30T16:36:53;58.70;;;23.90;;
62435;SDS011;48480;50.252;18.848;2023-01-30T16:39:33;51.30;;;22.40;;
62435;SDS011;48480;50.252;18.848;2023-01-30T16:42:00;55.80;;;24.30;;
62435;SDS011;48480;50.252;18.848;2023-01-30T16:44:30;43.40;;;18.90;;
62435;SDS011;48480;50.252;18.848;2023-01-30T16:47:03;45.80;;;20.10;;
62435;SDS011;48480;50.252;18.848;2023-01-30T16:49:47;41.40;;;19.50;;
62435;SDS011;48480;50.252;18.848;2023-01-30T16:52:16;49.20;;;21.50;;
62435;SDS011;48480;50.252;18.848;2023-01-30T16:54:46;39.30;;;18.70;;
62435;SDS011;48480;50.252;18.848;2023-01-30T16:59:49;63.00;;;24.90;;
62435;SDS011;48480;50.252;18.848;2023-01-30T17:02:27;41.20;;;16.90;;
62435;SDS011;48480;50.252;18.848;2023-01-30T17:05:16;52.30;;;21.70;;
62435;SDS011;48480;50.252;18.848;2023-01-30T17:07:43;47.30;;;21.30;;
62435;SDS011;48480;50.252;18.848;2023-01-30T17:18:51;37.90;;;19.80;;
62435;SDS011;48480;50.252;18.848;2023-01-30T17:21:19;39.80;;;20.70;;
62435;SDS011;48480;50.252;18.848;2023-01-30T17:23:52;50.00;;;23.80;;
62435;SDS011;48480;50.252;18.848;2023-01-30T17:26:24;41.10;;;22.40;;
62435;SDS011;48480;50.252;18.848;2023-01-30T17:28:50;40.80;;;22.00;;
62435;SDS011;48480;50.252;18.848;2023-01-30T17:31:16;40.50;;;20.50;;
62435;SDS011;48480;50.252;18.848;2023-01-30T17:33:42;35.50;;;19.40;;
62435;SDS011;48480;50.252;18.848;2023-01-30T17:36:14;32.80;;;19.70;;
62435;SDS011;48480;50.252;18.848;2023-01-30T17:38:44;32.80;;;18.00;;
62435;SDS011;48480;50.252;18.848;2023-01-30T17:41:13;31.50;;;18.10;;
62435;SDS011;48480;50.252;18.848;2023-01-30T17:43:42;32.90;;;17.70;;
62435;SDS011;48480;50.252;18.848;2023-01-30T17:46:08;25.20;;;15.20;;
62435;SDS011;48480;50.252;18.848;2023-01-30T17:48:35;25.10;;;13.90;;
62435;SDS011;48480;50.252;18.848;2023-01-30T17:51:01;26.00;;;15.00;;
62435;SDS011;48480;50.252;18.848;2023-01-30T17:53:26;30.40;;;16.10;;
62435;SDS011;48480;50.252;18.848;2023-01-30T17:55:52;30.20;;;15.50;;
62435;SDS011;48480;50.252;18.848;2023-01-30T17:58:17;31.80;;;18.10;;
62435;SDS011;48480;50.252;18.848;2023-01-30T18:00:43;37.30;;;19.20;;
62435;SDS011;48480;50.252;18.848;2023-01-30T18:03:09;34.50;;;17.30;;
62435;SDS011;48480;50.252;18.848;2023-01-30T18:05:34;43.60;;;21.40;;
62435;SDS011;48480;50.252;18.848;2023-01-30T18:08:00;40.60;;;21.50;;
62435;SDS011;48480;50.252;18.848;2023-01-30T18:10:26;37.00;;;19.40;;